Time;durP1;ratioP1;P1;durP2;ratioP2;P2;SDS_P1;SDS_P2;PMS_P1;PMS_P2;Temp;Humidity;BMP_temperature;BMP_pressure;BME280_temperature;BME280_humidity;BME280_pressure;Samples;Min_cycle;Max_cycle;Signal;HPM_P1;HPM_P2
2021/05/20 00:01:19;;;;;;;9.57;5.50;;;23.10;50.00;;;;;;6193388;28;83700;-67
2021/05/20 00:04:20;;;;;;;8.18;5.68;;;23.10;49.90;;;;;;6183355;28;80511;-67
2021/05/20 00:07:20;;;;;;;7.88;5.05;;;23.10;49.70;;;;;;6198840;28;83190;-67
2021/05/20 00:10:21;;;;;;;10.57;5.93;;;23.10;49.60;;;;;;6161686;28;80157;-67
2021/05/20 00:13:21;;;;;;;8.30;5.88;;;23.10;49.60;;;;;;6180538;28;81371;-67
2021/05/20 00:16:22;;;;;;;8.38;5.78;;;23.10;50.10;;;;;;6186510;28;81473;-67
2021/05/20 00:19:22;;;;;;;9.93;5.70;;;23.10;49.30;;;;;;6183110;28;81386;-67
2021/05/20 00:22:23;;;;;;;10.35;5.38;;;23.10;49.00;;;;;;6182135;28;80648;-66
2021/05/20 00:25:23;;;;;;;11.55;5.78;;;23.10;49.00;;;;;;6158196;28;80370;-66
2021/05/20 00:28:24;;;;;;;8.82;5.82;;;23.10;49.10;;;;;;6181006;28;86636;-66
2021/05/20 00:31:24;;;;;;;9.82;5.43;;;23.00;48.90;;;;;;6162397;28;80825;-66
2021/05/20 00:34:25;;;;;;;7.75;4.88;;;23.10;48.90;;;;;;6157989;28;81197;-67
2021/05/20 00:37:26;;;;;;;7.60;5.40;;;23.10;48.90;;;;;;6156601;28;80527;-67
2021/05/20 00:40:27;;;;;;;7.57;4.85;;;23.00;48.50;;;;;;6189608;28;80975;-67
2021/05/20 00:43:27;;;;;;;8.15;5.55;;;23.00;48.50;;;;;;6179236;28;81205;-66
2021/05/20 00:46:28;;;;;;;9.25;5.22;;;23.00;48.50;;;;;;6187450;28;83825;-66
2021/05/20 00:49:28;;;;;;;8.45;5.53;;;23.00;48.40;;;;;;6157890;28;80610;-64
2021/05/20 00:52:29;;;;;;;7.65;5.25;;;23.00;48.10;;;;;;6156129;28;85121;-64
2021/05/20 00:55:33;;;;;;;9.20;5.78;;;23.00;48.00;;;;;;6180998;28;80400;-65
2021/05/20 00:58:34;;;;;;;10.68;6.22;;;23.00;48.10;;;;;;6154941;28;80950;-65
2021/05/20 01:01:34;;;;;;;7.13;4.82;;;23.00;48.00;;;;;;6169088;28;80457;-65
2021/05/20 01:04:35;;;;;;;7.63;4.90;;;23.00;48.00;;;;;;6156951;28;81272;-65
2021/05/20 01:07:35;;;;;;;7.72;5.63;;;23.00;47.80;;;;;;6155662;28;80238;-65
2021/05/20 01:10:36;;;;;;;8.85;5.30;;;23.00;47.80;;;;;;6157175;28;80216;-66
2021/05/20 01:13:37;;;;;;;11.40;5.50;;;23.00;47.70;;;;;;6156407;28;80318;-66
2021/05/20 01:16:37;;;;;;;7.47;5.07;;;23.00;47.70;;;;;;6155882;28;80643;-66
2021/05/20 01:19:38;;;;;;;9.88;5.38;;;23.00;47.60;;;;;;6178557;28;80653;-67
2021/05/20 01:22:38;;;;;;;7.03;5.28;;;23.00;47.50;;;;;;6178426;28;82067;-66
2021/05/20 01:25:39;;;;;;;8.43;5.40;;;23.00;47.50;;;;;;6159267;28;80485;-66
2021/05/20 01:28:39;;;;;;;8.95;5.30;;;23.00;47.40;;;;;;6184344;28;80445;-66
2021/05/20 01:31:40;;;;;;;9.18;5.47;;;23.00;47.20;;;;;;6159393;28;80949;-66
2021/05/20 01:34:40;;;;;;;8.35;5.22;;;23.00;47.40;;;;;;6184062;28;83274;-65
2021/05/20 01:37:41;;;;;;;6.80;4.88;;;23.00;47.20;;;;;;6192635;28;80310;-66
2021/05/20 01:40:41;;;;;;;7.53;4.82;;;23.00;47.20;;;;;;6186636;27;81459;-65
2021/05/20 01:43:42;;;;;;;8.63;5.60;;;23.00;47.10;;;;;;6183152;28;81700;-66
2021/05/20 01:46:42;;;;;;;7.95;5.22;;;23.00;46.90;;;;;;6160159;28;80487;-67
2021/05/20 01:49:43;;;;;;;8.32;5.13;;;23.00;46.70;;;;;;6162660;28;81857;-67
2021/05/20 01:52:43;;;;;;;10.10;5.88;;;23.00;47.00;;;;;;6164960;28;80479;-66
2021/05/20 01:55:44;;;;;;;8.00;5.28;;;23.00;47.00;;;;;;6190257;28;80763;-67
2021/05/20 01:58:44;;;;;;;7.82;5.00;;;23.00;46.90;;;;;;6163957;28;81778;-67
2021/05/20 02:01:45;;;;;;;8.80;5.32;;;23.00;46.70;;;;;;6182541;28;80432;-66
2021/05/20 02:04:45;;;;;;;9.57;5.22;;;23.00;46.60;;;;;;6184123;28;80381;-66
2021/05/20 02:07:45;;;;;;;7.55;5.10;;;23.00;46.60;;;;;;6184904;28;80034;-66
2021/05/20 02:10:46;;;;;;;9.02;5.55;;;23.00;46.50;;;;;;6186663;28;80811;-66
2021/05/20 02:13:47;;;;;;;8.70;5.10;;;23.00;46.50;;;;;;6189971;28;80271;-66
2021/05/20 02:16:47;;;;;;;11.57;6.38;;;23.00;46.50;;;;;;6157245;28;81386;-66
2021/05/20 02:19:48;;;;;;;12.18;5.50;;;23.00;46.40;;;;;;6180655;28;80764;-66
2021/05/20 02:22:48;;;;;;;8.43;5.22;;;22.90;46.20;;;;;;6184611;28;80323;-67
2021/05/20 02:25:49;;;;;;;8.65;5.47;;;22.90;46.10;;;;;;6183160;28;81431;-66
2021/05/20 02:28:49;;;;;;;9.25;5.65;;;22.90;46.20;;;;;;6183210;28;80520;-66
2021/05/20 02:31:50;;;;;;;10.13;5.97;;;23.00;46.10;;;;;;6165232;28;81113;-66
2021/05/20 02:34:50;;;;;;;11.35;5.93;;;22.90;45.90;;;;;;6181869;28;80389;-65
2021/05/20 02:37:51;;;;;;;10.18;6.13;;;22.90;46.00;;;;;;6190973;28;80739;-66
2021/05/20 02:40:51;;;;;;;11.32;5.85;;;22.90;46.10;;;;;;6184926;28;84056;-66
2021/05/20 02:43:52;;;;;;;10.32;5.63;;;22.90;45.90;;;;;;6180586;28;80765;-65
2021/05/20 02:46:52;;;;;;;9.15;5.90;;;22.90;45.60;;;;;;6163022;28;80789;-66
2021/05/20 02:49:53;;;;;;;10.38;5.22;;;22.90;45.60;;;;;;6171552;28;80648;-66
2021/05/20 02:52:53;;;;;;;9.98;5.60;;;22.90;45.70;;;;;;6185490;28;80683;-66
2021/05/20 02:55:54;;;;;;;8.90;5.55;;;22.90;45.40;;;;;;6186953;28;81491;-66
2021/05/20 02:58:54;;;;;;;8.98;5.97;;;22.90;45.50;;;;;;6183920;28;80670;-67
2021/05/20 03:02:02;;;;;;;9.95;5.68;;;22.90;45.30;;;;;;6179635;28;81754;-67
2021/05/20 03:05:03;;;;;;;9.20;5.85;;;22.90;45.50;;;;;;6162152;28;81320;-67
2021/05/20 03:08:03;;;;;;;7.55;5.43;;;22.90;45.40;;;;;;6183630;28;80441;-67
2021/05/20 03:11:04;;;;;;;11.77;5.65;;;22.90;45.30;;;;;;6183218;28;80853;-66
2021/05/20 03:14:04;;;;;;;8.23;5.72;;;22.90;45.40;;;;;;6181684;28;81492;-66
2021/05/20 03:17:11;;;;;;;10.43;6.32;;;22.90;45.20;;;;;;6183592;28;80678;-67
2021/05/20 03:20:11;;;;;;;9.07;6.07;;;22.90;45.20;;;;;;6183654;28;81020;-67
2021/05/20 03:23:12;;;;;;;8.00;5.68;;;22.90;45.10;;;;;;6181953;28;80896;-66
2021/05/20 03:26:12;;;;;;;12.77;6.03;;;22.90;45.40;;;;;;6182922;28;80747;-67
2021/05/20 03:29:13;;;;;;;11.95;6.22;;;22.90;45.20;;;;;;6175847;28;81701;-67
2021/05/20 03:32:13;;;;;;;11.82;6.22;;;22.90;45.20;;;;;;6158427;28;83098;-67
2021/05/20 03:35:14;;;;;;;11.35;6.00;;;22.90;45.00;;;;;;6164406;28;82435;-67
2021/05/20 03:38:14;;;;;;;8.90;5.60;;;22.90;45.10;;;;;;6184563;28;80480;-67
2021/05/20 03:41:15;;;;;;;9.18;5.90;;;22.90;45.10;;;;;;6188975;28;80673;-67
2021/05/20 03:44:16;;;;;;;8.98;5.78;;;22.80;45.00;;;;;;6190048;28;80372;-69
2021/05/20 03:47:16;;;;;;;9.18;5.85;;;22.80;44.90;;;;;;6180493;28;80524;-68
2021/05/20 03:50:17;;;;;;;10.80;5.95;;;22.80;45.00;;;;;;6172457;28;82197;-67
2021/05/20 03:53:17;;;;;;;8.65;5.50;;;22.80;44.90;;;;;;6190019;28;82039;-67
2021/05/20 03:56:18;;;;;;;9.48;5.72;;;22.90;45.00;;;;;;6157622;28;80945;-67
2021/05/20 03:59:18;;;;;;;9.43;6.15;;;22.90;45.00;;;;;;6165594;28;80758;-67
2021/05/20 04:02:19;;;;;;;10.35;5.97;;;22.90;45.00;;;;;;6169750;28;84806;-67
2021/05/20 04:05:19;;;;;;;9.63;5.75;;;22.90;44.90;;;;;;6165310;28;80641;-67
2021/05/20 04:08:20;;;;;;;10.35;5.70;;;22.90;44.80;;;;;;6175674;28;80872;-68
2021/05/20 04:11:20;;;;;;;9.13;5.43;;;22.90;44.90;;;;;;6162069;28;80642;-65
2021/05/20 04:14:21;;;;;;;10.63;6.13;;;22.80;44.90;;;;;;6182062;28;80402;-67
2021/05/20 04:17:21;;;;;;;9.15;6.15;;;22.90;45.10;;;;;;6173655;28;80551;-67
2021/05/20 04:20:23;;;;;;;8.98;5.88;;;22.90;45.40;;;;;;6165430;28;80823;-66
2021/05/20 04:23:23;;;;;;;8.45;5.82;;;22.90;45.50;;;;;;6180736;28;80269;-67
2021/05/20 04:26:24;;;;;;;12.18;6.40;;;22.90;45.40;;;;;;6171810;28;82316;-66
2021/05/20 04:29:24;;;;;;;11.05;5.72;;;22.90;45.30;;;;;;6179949;28;80576;-66
2021/05/20 04:32:25;;;;;;;8.30;5.10;;;22.90;45.30;;;;;;6173611;28;80340;-64
2021/05/20 04:35:25;;;;;;;11.27;6.15;;;22.90;45.50;;;;;;6157400;28;83302;-63
2021/05/20 04:38:26;;;;;;;9.05;5.53;;;22.90;46.50;;;;;;6182936;28;80957;-63
2021/05/20 04:41:26;;;;;;;9.77;5.57;;;22.90;46.00;;;;;;6179897;28;80761;-64
2021/05/20 04:44:27;;;;;;;9.52;6.05;;;22.90;46.30;;;;;;6156697;28;80605;-63
2021/05/20 04:47:28;;;;;;;11.18;5.72;;;22.90;45.70;;;;;;6168464;28;82850;-63
2021/05/20 04:50:28;;;;;;;8.85;5.10;;;22.90;45.80;;;;;;6188886;28;80564;-63
2021/05/20 04:53:29;;;;;;;12.45;6.35;;;22.90;46.10;;;;;;6180820;28;80484;-64
2021/05/20 04:56:29;;;;;;;11.57;4.82;;;22.90;46.30;;;;;;6182116;28;80794;-65
2021/05/20 04:59:30;;;;;;;11.15;5.97;;;22.90;45.80;;;;;;6180807;28;80622;-63
2021/05/20 05:02:30;;;;;;;13.77;7.20;;;22.90;46.10;;;;;;6188475;28;83236;-64
2021/05/20 05:05:36;;;;;;;10.27;6.25;;;23.00;46.90;;;;;;6164979;28;80166;-64
2021/05/20 05:08:36;;;;;;;14.40;8.30;;;22.90;46.10;;;;;;6178946;28;80699;-64
2021/05/20 05:11:37;;;;;;;16.15;7.93;;;23.00;46.10;;;;;;6169733;28;80563;-64
2021/05/20 05:14:37;;;;;;;14.05;7.63;;;23.00;46.60;;;;;;6165632;28;80224;-64
2021/05/20 05:17:38;;;;;;;18.27;7.60;;;23.00;46.70;;;;;;6179721;28;81556;-63
2021/05/20 05:20:38;;;;;;;19.30;8.60;;;23.10;46.50;;;;;;6171644;28;80416;-63
2021/05/20 05:23:40;;;;;;;17.38;8.98;;;23.00;46.50;;;;;;6155072;28;83494;-63
2021/05/20 05:26:41;;;;;;;17.13;9.63;;;23.00;46.60;;;;;;6153677;28;80388;-64
2021/05/20 05:29:43;;;;;;;17.48;9.15;;;23.10;46.00;;;;;;6152528;28;81654;-63
2021/05/20 05:32:43;;;;;;;22.02;9.27;;;23.10;45.70;;;;;;6168234;28;80935;-65
2021/05/20 05:35:44;;;;;;;20.55;8.98;;;23.10;46.10;;;;;;6168206;28;80620;-65
2021/05/20 05:38:44;;;;;;;17.67;9.18;;;23.10;46.00;;;;;;6172598;28;81099;-64
2021/05/20 05:41:45;;;;;;;15.20;7.78;;;23.10;46.20;;;;;;6164755;28;81410;-66
2021/05/20 05:44:45;;;;;;;16.08;7.95;;;23.10;46.40;;;;;;6168621;28;80464;-64
2021/05/20 05:47:46;;;;;;;15.93;7.93;;;23.10;46.10;;;;;;6171211;28;80319;-62
2021/05/20 05:50:48;;;;;;;17.10;7.55;;;23.10;46.60;;;;;;6174879;28;81539;-62
2021/05/20 05:53:48;;;;;;;18.15;7.63;;;23.10;46.70;;;;;;6166523;28;80325;-63
2021/05/20 05:56:49;;;;;;;14.13;7.53;;;23.10;46.50;;;;;;6168854;28;89228;-62
2021/05/20 05:59:51;;;;;;;14.45;7.15;;;23.00;46.50;;;;;;6164297;28;80197;-61
2021/05/20 06:02:51;;;;;;;16.38;6.97;;;23.10;46.60;;;;;;6176734;28;80881;-61
2021/05/20 06:05:52;;;;;;;14.35;6.03;;;23.10;46.70;;;;;;6182372;28;80489;-63
2021/05/20 06:08:52;;;;;;;11.90;6.30;;;23.10;46.50;;;;;;6169558;28;80324;-63
2021/05/20 06:11:53;;;;;;;12.68;7.00;;;23.00;45.80;;;;;;6166640;28;80857;-64
2021/05/20 06:14:53;;;;;;;15.90;7.03;;;23.00;46.60;;;;;;6169340;28;81200;-63
2021/05/20 06:17:54;;;;;;;10.10;5.88;;;23.00;46.40;;;;;;6183991;28;80333;-64
2021/05/20 06:20:54;;;;;;;16.60;7.22;;;23.00;46.10;;;;;;6171252;28;81313;-65
2021/05/20 06:23:55;;;;;;;13.07;6.72;;;23.00;46.50;;;;;;6167258;28;80486;-64
2021/05/20 06:26:55;;;;;;;15.10;6.32;;;23.00;46.60;;;;;;6170619;28;80384;-63
2021/05/20 06:29:56;;;;;;;12.73;6.40;;;23.00;45.90;;;;;;6159943;28;83501;-64
2021/05/20 06:32:56;;;;;;;14.05;6.80;;;23.00;46.10;;;;;;6153353;28;81477;-64
2021/05/20 06:35:57;;;;;;;12.85;6.78;;;23.10;46.20;;;;;;6161287;28;81168;-64
2021/05/20 06:38:58;;;;;;;14.18;5.80;;;23.10;46.00;;;;;;6167161;28;82089;-65
2021/05/20 06:41:58;;;;;;;14.13;6.65;;;23.10;46.20;;;;;;6148692;28;80556;-65
2021/05/20 06:44:59;;;;;;;9.60;5.72;;;23.00;46.00;;;;;;6165902;28;81547;-64
2021/05/20 06:47:59;;;;;;;12.52;6.47;;;23.00;46.10;;;;;;6168467;28;81764;-65
2021/05/20 06:51:00;;;;;;;15.15;6.45;;;23.10;46.10;;;;;;6175933;28;80343;-65
2021/05/20 06:54:00;;;;;;;8.48;5.63;;;23.10;46.10;;;;;;6174391;28;80987;-64
2021/05/20 06:57:08;;;;;;;10.52;6.05;;;23.10;45.70;;;;;;6162216;28;81001;-64
2021/05/20 07:00:08;;;;;;;10.20;5.72;;;23.10;45.90;;;;;;6172346;28;80515;-64
2021/05/20 07:03:14;;;;;;;8.48;5.10;;;23.10;45.40;;;;;;6183257;28;80891;-65
2021/05/20 07:06:16;;;;;;;11.60;5.88;;;23.10;45.70;;;;;;6178395;28;80806;-64
2021/05/20 07:09:16;;;;;;;10.68;5.50;;;23.20;45.60;;;;;;6183907;28;81103;-64
2021/05/20 07:12:17;;;;;;;8.95;4.95;;;23.10;46.60;;;;;;6183713;28;80856;-65
2021/05/20 07:15:17;;;;;;;10.85;4.38;;;23.20;45.80;;;;;;6180664;28;81042;-66
2021/05/20 07:18:18;;;;;;;9.20;5.05;;;23.20;45.40;;;;;;6182088;28;81471;-65
2021/05/20 07:21:19;;;;;;;7.40;4.47;;;23.20;45.30;;;;;;6185585;28;81821;-65
2021/05/20 07:24:19;;;;;;;7.57;4.70;;;23.20;45.40;;;;;;6149478;28;82605;-65
2021/05/20 07:27:20;;;;;;;8.85;4.60;;;23.20;45.50;;;;;;6158916;28;80601;-66
2021/05/20 07:30:21;;;;;;;11.15;5.32;;;23.20;45.60;;;;;;6171310;28;83307;-67
2021/05/20 07:33:23;;;;;;;10.57;4.22;;;23.20;45.50;;;;;;6165933;28;80841;-66
2021/05/20 07:36:23;;;;;;;7.82;4.78;;;23.20;45.50;;;;;;6171003;28;82009;-64
2021/05/20 07:39:24;;;;;;;5.95;4.07;;;23.20;45.30;;;;;;6161922;28;80832;-66
2021/05/20 07:42:24;;;;;;;5.25;3.88;;;23.20;45.30;;;;;;6155888;28;81878;-66
2021/05/20 07:45:25;;;;;;;8.32;4.40;;;23.30;45.20;;;;;;6158353;28;80714;-67
2021/05/20 07:48:25;;;;;;;11.63;4.00;;;23.30;45.60;;;;;;6179772;28;80759;-66
2021/05/20 07:51:26;;;;;;;7.22;4.32;;;23.30;45.70;;;;;;6181690;28;81143;-66
2021/05/20 07:54:26;;;;;;;7.53;3.50;;;23.30;45.40;;;;;;6198522;28;82160;-66
2021/05/20 07:57:27;;;;;;;6.40;4.03;;;23.30;45.40;;;;;;6181487;28;80681;-66
2021/05/20 08:00:28;;;;;;;7.70;3.83;;;23.30;45.40;;;;;;6164519;28;83051;-66
2021/05/20 08:06:42;;;;;;;10.45;4.22;;;23.30;45.40;;;;;;6196955;28;83331;-68
2021/05/20 08:10:03;;;;;;;14.52;5.57;;;23.30;45.40;;;;;;6167036;28;80392;-66
2021/05/20 08:13:04;;;;;;;176.27;56.25;;;23.30;45.40;;;;;;6181939;28;80635;-67
2021/05/20 08:16:04;;;;;;;427.05;142.18;;;23.30;45.50;;;;;;6180009;28;83912;-65
2021/05/20 08:19:05;;;;;;;282.63;95.40;;;23.30;45.70;;;;;;6174437;28;85550;-66
2021/05/20 08:22:05;;;;;;;273.45;94.45;;;23.30;45.90;;;;;;6156400;28;87820;-68
2021/05/20 08:25:06;;;;;;;232.02;82.90;;;23.30;46.00;;;;;;6175227;28;83924;-67
2021/05/20 08:28:06;;;;;;;201.98;71.30;;;23.30;46.30;;;;;;6157690;28;83825;-67
2021/05/20 08:31:07;;;;;;;195.00;64.43;;;23.30;46.00;;;;;;6154454;28;83279;-69
2021/05/20 08:34:07;;;;;;;166.02;54.95;;;23.30;46.00;;;;;;6149613;28;82966;-67
2021/05/20 08:37:08;;;;;;;151.40;53.55;;;23.30;46.00;;;;;;6176493;28;84062;-68
2021/05/20 08:40:08;;;;;;;150.73;51.60;;;23.30;46.00;;;;;;6178234;28;83803;-66
2021/05/20 08:43:09;;;;;;;142.60;44.50;;;23.30;45.90;;;;;;6177012;28;86157;-67
2021/05/20 08:46:09;;;;;;;130.40;41.75;;;23.40;45.90;;;;;;6153467;28;83941;-66
2021/05/20 08:49:16;;;;;;;114.70;41.30;;;23.40;45.70;;;;;;6153740;28;83151;-65
2021/05/20 08:52:16;;;;;;;106.53;37.63;;;23.40;45.70;;;;;;6153492;28;83229;-64
2021/05/20 08:55:17;;;;;;;103.90;34.88;;;23.40;45.60;;;;;;6176144;28;83515;-68
2021/05/20 08:58:22;;;;;;;108.15;34.17;;;23.40;45.60;;;;;;6184623;28;84444;-68
2021/05/20 09:01:22;;;;;;;93.32;31.85;;;23.40;45.50;;;;;;6154506;28;83930;-69
2021/05/20 09:04:23;;;;;;;83.10;29.52;;;23.40;45.40;;;;;;6166961;28;84185;-69
2021/05/20 09:07:29;;;;;;;82.20;28.80;;;23.40;45.40;;;;;;6176808;28;84685;-67
2021/05/20 09:10:29;;;;;;;;;;;23.40;45.10;;;;;;6181574;28;87621;-66
2021/05/20 09:13:34;;;;;;;59.63;20.48;;;23.40;45.10;;;;;;6197191;28;82831;-68
2021/05/20 09:16:34;;;;;;;63.00;20.13;;;23.40;44.80;;;;;;6175882;28;83481;-67
2021/05/20 09:19:35;;;;;;;56.90;17.75;;;23.50;44.60;;;;;;6177885;28;84330;-66
2021/05/20 09:22:36;;;;;;;48.97;16.40;;;23.40;44.00;;;;;;6176177;28;84101;-67
2021/05/20 09:25:37;;;;;;;45.45;16.30;;;23.40;44.00;;;;;;6151993;28;84289;-67
2021/05/20 09:28:40;;;;;;;37.80;14.18;;;23.40;44.00;;;;;;6176761;28;82918;-67
2021/05/20 09:31:43;;;;;;;42.03;14.82;;;23.40;44.10;;;;;;6178889;28;83843;-67
2021/05/20 09:34:44;;;;;;;37.53;12.30;;;23.50;44.10;;;;;;6141217;28;83400;-66
2021/05/20 09:37:44;;;;;;;29.40;11.25;;;23.40;43.50;;;;;;6174176;28;82917;-67
2021/05/20 09:40:45;;;;;;;31.73;10.70;;;23.40;43.40;;;;;;6152826;28;83007;-68
2021/05/20 09:43:47;;;;;;;28.17;10.70;;;23.40;43.40;;;;;;6152994;28;83573;-67
2021/05/20 09:46:47;;;;;;;21.65;9.10;;;23.40;43.50;;;;;;6152928;28;83034;-67
2021/05/20 09:49:47;;;;;;;25.15;9.48;;;23.40;44.00;;;;;;6149326;28;82339;-67
2021/05/20 09:52:48;;;;;;;19.27;8.07;;;23.40;44.60;;;;;;6177137;28;81528;-66
2021/05/20 09:55:50;;;;;;;20.25;8.02;;;23.40;45.50;;;;;;6163393;28;81674;-66
2021/05/20 09:58:50;;;;;;;16.17;6.75;;;23.40;46.40;;;;;;6162124;28;80467;-66
2021/05/20 10:01:51;;;;;;;15.32;7.25;;;23.40;46.80;;;;;;6166293;28;81014;-66
2021/05/20 10:04:53;;;;;;;13.20;6.45;;;23.50;47.10;;;;;;6184038;28;81400;-68
2021/05/20 10:07:53;;;;;;;14.93;6.55;;;23.40;47.10;;;;;;6177674;28;80442;-67
2021/05/20 10:10:54;;;;;;;13.60;6.38;;;23.40;48.40;;;;;;6162303;28;85021;-66
2021/05/20 10:13:54;;;;;;;12.98;6.13;;;23.40;47.20;;;;;;6181300;28;80599;-66
2021/05/20 10:16:55;;;;;;;17.58;5.82;;;23.50;46.50;;;;;;6180838;28;80279;-65
2021/05/20 10:19:55;;;;;;;8.95;4.28;;;23.50;45.40;;;;;;6162550;28;80366;-65
2021/05/20 10:22:56;;;;;;;11.38;5.10;;;23.50;44.70;;;;;;6160045;28;80492;-64
2021/05/20 10:25:56;;;;;;;10.27;4.68;;;23.50;44.80;;;;;;6180536;28;80448;-65
2021/05/20 10:28:57;;;;;;;9.85;5.03;;;23.50;44.80;;;;;;6163982;28;80875;-65
2021/05/20 10:31:57;;;;;;;9.63;4.45;;;23.50;44.70;;;;;;6178369;28;80398;-65
2021/05/20 10:34:58;;;;;;;9.60;4.30;;;23.50;44.80;;;;;;6158942;28;81023;-65
2021/05/20 10:37:59;;;;;;;8.32;4.15;;;23.50;45.10;;;;;;6162925;28;80321;-65
2021/05/20 10:40:59;;;;;;;6.95;3.88;;;23.50;45.10;;;;;;6180081;28;80663;-66
2021/05/20 10:44:00;;;;;;;9.57;3.67;;;23.50;44.70;;;;;;6162915;28;80770;-66
2021/05/20 10:47:01;;;;;;;7.55;3.20;;;23.50;44.70;;;;;;6187121;28;80155;-66
2021/05/20 10:50:02;;;;;;;11.70;4.18;;;23.50;45.10;;;;;;6181107;28;80456;-65
2021/05/20 10:53:02;;;;;;;5.80;3.25;;;23.50;44.80;;;;;;6179548;28;80571;-65
2021/05/20 10:56:03;;;;;;;7.28;3.13;;;23.50;44.20;;;;;;6167951;28;81794;-65
2021/05/20 10:59:04;;;;;;;4.28;2.70;;;23.50;44.00;;;;;;6158893;28;80235;-66
2021/05/20 11:02:04;;;;;;;5.47;3.05;;;23.50;43.60;;;;;;6166943;28;82010;-66
2021/05/20 11:05:05;;;;;;;7.03;3.00;;;23.50;43.30;;;;;;6162870;28;81626;-67
2021/05/20 11:08:05;;;;;;;7.30;3.20;;;23.50;43.10;;;;;;6169295;28;81745;-67
2021/05/20 11:11:07;;;;;;;9.15;3.30;;;23.50;42.70;;;;;;6180014;28;80735;-66
2021/05/20 11:14:07;;;;;;;3.40;2.67;;;23.50;42.70;;;;;;6175877;28;80683;-65
2021/05/20 11:17:08;;;;;;;7.13;3.50;;;23.50;42.30;;;;;;6156870;28;81422;-67
2021/05/20 11:20:08;;;;;;;5.75;3.22;;;23.60;41.90;;;;;;6158560;28;80395;-67
2021/05/20 11:23:09;;;;;;;4.45;2.72;;;23.50;41.70;;;;;;6161781;28;83954;-65
2021/05/20 11:26:10;;;;;;;5.55;2.65;;;23.50;41.50;;;;;;6173766;28;80328;-65
2021/05/20 11:29:10;;;;;;;5.97;3.28;;;23.60;41.90;;;;;;6156736;28;81517;-66
2021/05/20 11:32:24;;;;;;;4.63;2.97;;;23.60;41.40;;;;;;6154532;28;80858;-63
2021/05/20 11:35:42;;;;;;;7.70;3.35;;;23.60;41.00;;;;;;6152499;28;83954;-65
2021/05/20 11:38:42;;;;;;;5.45;2.42;;;23.60;41.10;;;;;;6162990;28;81656;-66
2021/05/20 11:41:43;;;;;;;6.15;2.33;;;23.60;41.00;;;;;;6168149;28;80506;-64
2021/05/20 11:44:44;;;;;;;3.33;2.10;;;23.60;40.50;;;;;;6166548;28;81149;-67
2021/05/20 11:47:44;;;;;;;2.38;1.65;;;23.60;40.20;;;;;;6168877;28;81563;-67
2021/05/20 11:50:45;;;;;;;6.82;1.95;;;23.60;40.20;;;;;;6152984;28;80347;-66
2021/05/20 11:53:45;;;;;;;2.28;1.80;;;23.60;40.10;;;;;;6150756;28;80972;-66
2021/05/20 11:56:48;;;;;;;10.38;1.80;;;23.70;40.20;;;;;;6168870;28;81469;-67
2021/05/20 11:59:49;;;;;;;7.25;1.80;;;23.70;40.00;;;;;;6155204;28;82120;-67
2021/05/20 12:02:49;;;;;;;3.00;1.80;;;23.70;39.90;;;;;;6167649;28;80892;-67
2021/05/20 12:05:50;;;;;;;1.55;1.20;;;23.70;39.70;;;;;;6180461;28;80195;-67
2021/05/20 12:08:50;;;;;;;3.40;1.25;;;23.70;39.40;;;;;;6166716;28;80353;-67
2021/05/20 12:11:51;;;;;;;2.67;1.45;;;23.70;39.30;;;;;;6168890;28;80162;-67
2021/05/20 12:14:53;;;;;;;8.05;1.40;;;23.70;39.40;;;;;;6180404;28;80763;-67
2021/05/20 12:17:54;;;;;;;1.77;1.40;;;23.70;39.10;;;;;;6181964;28;80776;-66
2021/05/20 12:20:55;;;;;;;1.55;1.40;;;23.70;38.80;;;;;;6168563;28;80861;-66
2021/05/20 12:23:55;;;;;;;1.98;1.17;;;23.70;38.70;;;;;;6154935;28;80728;-66
2021/05/20 12:26:56;;;;;;;2.95;1.20;;;23.70;38.20;;;;;;6156886;28;80257;-66
2021/05/20 12:29:57;;;;;;;2.47;1.38;;;23.70;38.00;;;;;;6168437;28;81693;-66
2021/05/20 12:32:57;;;;;;;3.03;1.17;;;23.60;37.90;;;;;;6169973;28;80850;-67
2021/05/20 12:35:58;;;;;;;1.40;1.30;;;23.70;37.80;;;;;;6157803;28;80587;-67
2021/05/20 12:38:58;;;;;;;2.28;1.30;;;23.70;38.00;;;;;;6157285;28;83534;-67
2021/05/20 12:41:59;;;;;;;1.42;1.10;;;23.70;37.90;;;;;;6157795;28;80798;-67
2021/05/20 12:44:59;;;;;;;3.38;1.48;;;23.70;38.00;;;;;;6162144;28;81077;-67
2021/05/20 12:48:00;;;;;;;3.38;1.60;;;23.60;37.80;;;;;;6172432;28;80386;-67
2021/05/20 12:51:01;;;;;;;4.18;1.80;;;23.60;37.70;;;;;;6179322;28;81942;-67
2021/05/20 12:54:07;;;;;;;1.80;1.23;;;23.60;37.30;;;;;;6179520;28;83072;-64
2021/05/20 12:57:09;;;;;;;1.27;1.10;;;23.60;37.20;;;;;;6165342;28;80437;-65
2021/05/20 13:00:09;;;;;;;1.92;1.20;;;23.60;37.70;;;;;;6165802;28;85271;-67
2021/05/20 13:03:10;;;;;;;1.98;1.40;;;23.60;37.70;;;;;;6177469;28;82117;-66
2021/05/20 13:06:10;;;;;;;1.95;1.52;;;23.60;37.20;;;;;;6172571;28;82537;-65
2021/05/20 13:09:11;;;;;;;3.38;1.23;;;23.60;37.10;;;;;;6167653;28;80899;-65
2021/05/20 13:12:17;;;;;;;2.08;1.45;;;23.60;37.00;;;;;;6152849;28;81080;-66
2021/05/20 13:15:17;;;;;;;5.32;1.38;;;23.60;37.00;;;;;;6164201;28;81154;-67
2021/05/20 13:24:48;;;;;;;1.63;1.30;;;23.60;37.90;;;;;;6177835;28;80634;-67
2021/05/20 13:27:48;;;;;;;1.23;1.10;;;23.60;37.90;;;;;;6158137;28;80799;-66
2021/05/20 13:30:57;;;;;;;3.80;1.30;;;23.60;37.60;;;;;;6149726;28;81784;-67
2021/05/20 13:33:58;;;;;;;3.25;1.35;;;23.60;37.10;;;;;;6170436;28;81829;-66
2021/05/20 13:37:01;;;;;;;1.20;1.20;;;23.60;37.30;;;;;;6172584;28;83089;-66
2021/05/20 13:40:05;;;;;;;3.00;1.30;;;23.60;37.30;;;;;;6155842;28;80545;-66
2021/05/20 13:43:06;;;;;;;3.50;1.60;;;23.60;37.80;;;;;;6171174;28;80630;-66
2021/05/20 13:46:06;;;;;;;1.50;1.40;;;23.60;37.80;;;;;;6159017;28;80693;-67
2021/05/20 13:49:07;;;;;;;2.30;1.50;;;23.60;37.40;;;;;;6153060;28;80310;-67
2021/05/20 13:52:08;;;;;;;4.28;1.20;;;23.60;37.40;;;;;;6155290;28;83852;-67
2021/05/20 13:55:09;;;;;;;1.08;1.08;;;23.60;37.70;;;;;;6177383;28;80872;-67
2021/05/20 13:58:11;;;;;;;2.22;1.35;;;23.60;37.70;;;;;;6159077;28;82815;-68
2021/05/20 14:01:12;;;;;;;1.95;1.40;;;23.60;37.20;;;;;;6177976;28;80812;-68
2021/05/20 14:04:21;;;;;;;2.05;1.30;;;23.60;37.30;;;;;;6178835;28;82297;-68
2021/05/20 14:07:22;;;;;;;2.85;1.30;;;23.60;37.40;;;;;;6179158;28;80876;-66
2021/05/20 14:10:22;;;;;;;1.38;1.27;;;23.60;37.10;;;;;;6179043;28;80237;-68
2021/05/20 14:13:23;;;;;;;2.08;1.20;;;23.60;36.80;;;;;;6156087;28;80309;-66
2021/05/20 14:16:24;;;;;;;3.88;1.45;;;23.60;37.00;;;;;;6174996;28;82429;-66
2021/05/20 14:19:25;;;;;;;1.48;1.10;;;23.60;37.10;;;;;;6180439;28;80897;-67
2021/05/20 14:22:25;;;;;;;1.40;1.20;;;23.60;37.30;;;;;;6156740;28;80826;-67
2021/05/20 14:25:28;;;;;;;2.55;1.27;;;23.50;37.30;;;;;;6200461;28;80726;-68
2021/05/20 14:28:28;;;;;;;2.33;1.30;;;23.50;37.30;;;;;;6155459;27;80607;-66
2021/05/20 14:31:29;;;;;;;1.20;1.10;;;23.50;37.30;;;;;;6176849;28;80372;-65
2021/05/20 14:34:29;;;;;;;2.17;1.30;;;23.60;37.30;;;;;;6177605;28;87112;-64
2021/05/20 14:37:32;;;;;;;3.33;1.33;;;23.60;36.70;;;;;;6156919;28;81551;-65
2021/05/20 14:40:32;;;;;;;2.90;1.30;;;23.60;36.40;;;;;;6156852;28;80405;-65
2021/05/20 14:43:33;;;;;;;3.63;1.20;;;23.60;36.30;;;;;;6153645;28;83669;-64
2021/05/20 14:46:33;;;;;;;2.22;1.50;;;23.60;36.40;;;;;;6173380;28;80370;-66
2021/05/20 14:49:45;;;;;;;5.15;1.48;;;23.60;36.50;;;;;;6160786;28;89401;-66
2021/05/20 14:52:46;;;;;;;4.28;1.50;;;23.60;36.60;;;;;;6172515;28;83461;-65
2021/05/20 14:55:56;;;;;;;2.90;1.30;;;23.60;36.10;;;;;;6160644;28;81196;-66
2021/05/20 15:05:20;;;;;;;2.72;1.30;;;23.50;36.60;;;;;;6188640;28;80724;-66
2021/05/20 15:08:21;;;;;;;3.30;1.10;;;23.50;36.30;;;;;;6188589;28;82146;-64
2021/05/20 15:14:34;;;;;;;1.65;1.50;;;23.40;36.70;;;;;;6158547;28;81830;-66
2021/05/20 15:17:48;;;;;;;3.38;1.98;;;23.40;36.50;;;;;;6157595;28;81971;-65
2021/05/20 15:20:51;;;;;;;1.30;1.20;;;23.40;36.50;;;;;;6163565;28;81595;-66
2021/05/20 15:23:51;;;;;;;1.25;1.15;;;23.50;36.30;;;;;;6181961;28;80558;-66
2021/05/20 15:26:52;;;;;;;1.65;1.40;;;23.50;36.30;;;;;;6197249;28;81964;-66
2021/05/20 15:29:53;;;;;;;3.30;1.50;;;23.50;36.00;;;;;;6183561;28;81611;-66
2021/05/20 15:32:53;;;;;;;4.75;1.45;;;23.50;36.50;;;;;;6182509;28;80504;-65
2021/05/20 15:35:54;;;;;;;3.28;1.65;;;23.50;36.80;;;;;;6172323;28;81386;-66
2021/05/20 15:38:54;;;;;;;2.53;1.40;;;23.60;35.90;;;;;;6169922;28;90002;-66
2021/05/20 15:41:55;;;;;;;1.45;1.20;;;23.50;35.80;;;;;;6170446;28;81084;-66
2021/05/20 15:44:56;;;;;;;173.85;48.38;;;23.50;35.80;;;;;;6170747;28;80842;-66
2021/05/20 15:48:18;;;;;;;394.38;111.90;;;23.50;36.10;;;;;;6161768;28;83353;-66
2021/05/20 15:51:17;;;;;;;500.48;145.75;;;23.50;36.80;;;;;;6163922;28;85637;-65
2021/05/20 15:54:17;;;;;;;469.90;138.55;;;23.50;36.60;;;;;;6159266;28;85309;-65